Time;durP1;ratioP1;P1;durP2;ratioP2;P2;SDS_P1;SDS_P2;PMS_P1;PMS_P2;Temp;Humidity;BMP_temperature;BMP_pressure;BME280_temperature;BME280_humidity;BME280_pressure;Samples;Min_cycle;Max_cycle;Signal;HPM_P1;HPM_P2
2021/03/21 00:00:33;;;;;;;5.28;3.83;;;1.90;88.80;;;;;;5055883;28;20024;-76
2021/03/21 00:02:59;;;;;;;3.75;3.10;;;1.90;86.00;;;;;;5064575;28;20354;-76
2021/03/21 00:05:25;;;;;;;4.63;3.55;;;2.00;86.00;;;;;;5061674;28;20016;-77
2021/03/21 00:07:59;;;;;;;4.88;3.08;;;2.10;83.30;;;;;;5068291;28;20027;-76
2021/03/21 00:10:26;;;;;;;8.05;3.97;;;2.10;84.00;;;;;;5064334;28;20017;-77
2021/03/21 00:12:52;;;;;;;5.53;3.42;;;2.00;84.50;;;;;;5063844;28;20419;-76
2021/03/21 00:15:18;;;;;;;6.13;3.20;;;1.80;88.70;;;;;;5052529;28;20032;-76
2021/03/21 00:17:44;;;;;;;3.90;2.72;;;1.90;82.90;;;;;;5068822;28;20016;-76
2021/03/21 00:20:12;;;;;;;4.00;3.20;;;2.00;82.90;;;;;;5062633;28;20047;-76
2021/03/21 00:22:37;;;;;;;29.27;12.15;;;2.00;85.60;;;;;;5063588;28;20115;-76
2021/03/21 00:25:07;;;;;;;31.65;13.50;;;1.90;87.30;;;;;;5067318;28;20100;-76
2021/03/21 00:27:33;;;;;;;23.02;10.50;;;1.70;89.70;;;;;;5061926;28;20028;-77
2021/03/21 00:29:58;;;;;;;12.45;6.80;;;1.60;90.40;;;;;;5053009;28;20429;-76
2021/03/21 00:32:24;;;;;;;9.02;5.80;;;1.50;89.80;;;;;;5056415;28;20021;-76
2021/03/21 00:34:50;;;;;;;5.88;3.97;;;1.50;90.90;;;;;;5062448;28;20043;-76
2021/03/21 00:37:15;;;;;;;7.10;4.82;;;1.50;90.30;;;;;;5070241;28;20408;-76
2021/03/21 00:39:41;;;;;;;6.15;3.58;;;1.40;90.80;;;;;;5057020;28;20059;-76
2021/03/21 00:42:07;;;;;;;5.03;4.00;;;1.20;91.80;;;;;;5058154;28;20032;-76
2021/03/21 00:44:33;;;;;;;6.00;3.90;;;1.00;92.60;;;;;;5065696;28;20036;-76
2021/03/21 00:46:59;;;;;;;6.95;3.97;;;1.00;93.30;;;;;;5067730;28;20107;-76
2021/03/21 00:49:24;;;;;;;4.40;3.70;;;1.00;93.30;;;;;;5052745;28;21350;-76
2021/03/21 00:51:51;;;;;;;4.05;3.50;;;1.00;92.50;;;;;;5055394;28;20076;-77
2021/03/21 00:54:17;;;;;;;5.10;3.28;;;1.00;93.60;;;;;;5061197;28;20024;-76
2021/03/21 00:56:43;;;;;;;3.50;2.95;;;0.90;93.20;;;;;;5060627;28;20016;-76
2021/03/21 00:59:11;;;;;;;4.32;3.13;;;0.80;94.70;;;;;;5066639;28;20021;-76
2021/03/21 01:01:37;;;;;;;7.15;3.65;;;0.80;93.80;;;;;;5063927;28;20036;-76
2021/03/21 01:04:03;;;;;;;3.90;3.17;;;0.90;94.70;;;;;;5067529;28;20082;-76
2021/03/21 01:06:30;;;;;;;4.50;3.58;;;0.80;92.80;;;;;;5059438;28;20028;-76
2021/03/21 01:08:58;;;;;;;5.82;3.42;;;0.90;92.20;;;;;;5069015;28;20024;-76
2021/03/21 01:11:30;;;;;;;3.75;2.95;;;0.80;93.60;;;;;;5065211;28;20024;-76
2021/03/21 01:13:57;;;;;;;4.20;3.80;;;0.90;93.30;;;;;;5068232;28;20021;-76
2021/03/21 01:16:28;;;;;;;6.45;3.70;;;0.90;94.20;;;;;;5070950;28;20083;-75
2021/03/21 01:18:54;;;;;;;3.70;3.00;;;0.80;95.70;;;;;;5070206;28;20021;-76
2021/03/21 01:21:25;;;;;;;4.18;3.28;;;0.70;95.60;;;;;;5067098;28;20077;-75
2021/03/21 01:23:51;;;;;;;5.22;3.47;;;0.70;95.20;;;;;;5065471;28;20028;-75
2021/03/21 01:26:20;;;;;;;4.60;3.47;;;0.70;95.10;;;;;;5065150;28;20039;-75
2021/03/21 01:28:46;;;;;;;3.42;3.13;;;0.60;94.00;;;;;;5056206;28;20502;-75
2021/03/21 01:31:16;;;;;;;4.43;3.45;;;0.60;95.50;;;;;;5058817;28;20050;-75
2021/03/21 01:33:41;;;;;;;5.15;4.03;;;0.60;95.70;;;;;;5064135;28;20056;-76
2021/03/21 01:36:13;;;;;;;6.78;4.05;;;0.50;95.70;;;;;;5058064;28;20067;-76
2021/03/21 01:38:39;;;;;;;9.20;5.35;;;0.40;94.50;;;;;;5062981;28;20028;-75
2021/03/21 01:41:13;;;;;;;10.85;5.65;;;0.40;93.80;;;;;;5064999;28;20602;-76
2021/03/21 01:43:41;;;;;;;5.97;4.22;;;0.40;94.30;;;;;;5061405;28;20537;-75
2021/03/21 01:46:07;;;;;;;6.40;4.05;;;0.40;94.80;;;;;;5072808;28;20027;-75
2021/03/21 01:48:53;;;;;;;5.75;3.80;;;0.50;96.80;;;;;;5072974;28;20020;-75
2021/03/21 01:51:33;;;;;;;4.90;4.15;;;0.40;95.90;;;;;;5070477;28;20044;-76
2021/03/21 01:54:03;;;;;;;4.90;2.95;;;0.50;93.40;;;;;;5068959;28;20017;-75
2021/03/21 01:56:31;;;;;;;4.53;2.88;;;0.60;93.10;;;;;;5072689;28;20036;-75
2021/03/21 01:59:08;;;;;;;4.07;3.30;;;0.60;93.00;;;;;;5062821;28;20021;-75
2021/03/21 02:01:34;;;;;;;4.35;2.83;;;0.50;92.90;;;;;;5060006;28;20357;-75
2021/03/21 02:04:00;;;;;;;6.13;3.42;;;0.50;94.20;;;;;;5059376;28;20033;-75
2021/03/21 02:06:35;;;;;;;5.65;4.10;;;0.40;93.50;;;;;;5065922;28;20040;-75
2021/03/21 02:09:21;;;;;;;8.50;3.90;;;0.30;94.80;;;;;;5065919;28;20029;-75
2021/03/21 02:12:35;;;;;;;6.30;4.22;;;0.20;95.50;;;;;;5054045;28;20090;-75
2021/03/21 02:15:30;;;;;;;4.43;3.42;;;0.30;96.40;;;;;;5029883;28;20029;-75
2021/03/21 02:18:21;;;;;;;4.43;3.70;;;0.40;94.90;;;;;;5031333;28;20132;-75
2021/03/21 02:21:20;;;;;;;5.80;3.90;;;0.20;94.60;;;;;;5031524;28;20120;-75
2021/03/21 02:24:11;;;;;;;4.55;3.30;;;0.20;95.00;;;;;;5029364;28;20037;-75
2021/03/21 02:26:59;;;;;;;3.63;3.13;;;0.10;94.70;;;;;;5027837;28;20487;-75
2021/03/21 02:29:49;;;;;;;3.35;2.97;;;0.10;94.90;;;;;;5029339;28;20045;-75
2021/03/21 02:32:18;;;;;;;5.10;3.72;;;-0.10;95.50;;;;;;5032174;28;20068;-75
2021/03/21 02:34:47;;;;;;;4.13;3.10;;;-0.10;95.30;;;;;;5032673;28;20044;-75
2021/03/21 02:37:27;;;;;;;5.40;3.33;;;-0.20;95.90;;;;;;5033052;28;20026;-75
2021/03/21 02:39:55;;;;;;;;;;;-0.20;95.60;;;;;;5032155;28;20033;-75
2021/03/21 02:42:29;;;;;;;4.70;3.28;;;-0.20;96.50;;;;;;5032810;28;19905;-75
2021/03/21 02:45:03;;;;;;;5.63;3.95;;;0.00;96.50;;;;;;5041853;28;20070;-75
2021/03/21 02:47:31;;;;;;;5.03;3.83;;;0.10;96.30;;;;;;5075304;28;20464;-75
2021/03/21 02:50:00;;;;;;;3.42;3.08;;;0.10;95.90;;;;;;5074976;28;20028;-75
2021/03/21 02:52:47;;;;;;;3.92;3.53;;;0.10;95.80;;;;;;5074585;28;20024;-76
2021/03/21 02:55:28;;;;;;;5.25;3.50;;;0.00;95.70;;;;;;5054126;28;20096;-75
2021/03/21 02:57:59;;;;;;;4.80;3.35;;;0.00;94.20;;;;;;5073082;28;20025;-75
2021/03/21 03:00:30;;;;;;;5.15;2.88;;;0.10;93.30;;;;;;5074816;28;20481;-76
2021/03/21 03:03:01;;;;;;;3.45;3.00;;;0.30;92.60;;;;;;5074698;28;20037;-75
2021/03/21 03:05:36;;;;;;;4.03;3.30;;;0.40;92.20;;;;;;5073487;28;20077;-75
2021/03/21 03:08:13;;;;;;;4.35;3.10;;;0.30;93.20;;;;;;5073911;28;20028;-75
2021/03/21 03:10:48;;;;;;;5.00;3.10;;;0.00;94.20;;;;;;5074823;28;20031;-75
2021/03/21 03:13:44;;;;;;;3.30;2.58;;;0.10;94.90;;;;;;5073846;28;20032;-75
2021/03/21 03:16:35;;;;;;;3.97;3.55;;;0.00;94.90;;;;;;5074301;28;20074;-75
2021/03/21 03:19:20;;;;;;;4.15;3.25;;;0.00;96.10;;;;;;5074364;28;20028;-75
2021/03/21 03:21:55;;;;;;;4.18;2.70;;;-0.10;95.70;;;;;;5073709;28;20115;-75
2021/03/21 03:24:36;;;;;;;4.65;3.28;;;-0.10;96.10;;;;;;5074405;28;20483;-75
2021/03/21 03:27:18;;;;;;;5.15;3.60;;;0.00;96.30;;;;;;5074147;28;20078;-75
2021/03/21 03:30:17;;;;;;;4.05;3.58;;;0.00;96.30;;;;;;5073892;28;20119;-75
2021/03/21 03:32:43;;;;;;;5.80;3.72;;;0.00;96.30;;;;;;5054390;28;20029;-75
2021/03/21 03:35:12;;;;;;;6.13;4.15;;;-0.10;96.00;;;;;;5071126;28;20135;-75
2021/03/21 03:37:39;;;;;;;6.45;3.85;;;-0.20;96.90;;;;;;5073657;28;20107;-75
2021/03/21 03:40:06;;;;;;;7.03;3.72;;;-0.30;96.90;;;;;;5073881;28;20555;-75
2021/03/21 03:43:00;;;;;;;5.55;3.88;;;-0.30;97.60;;;;;;5073955;28;20108;-75
2021/03/21 03:45:36;;;;;;;5.10;3.80;;;-0.30;97.60;;;;;;5074021;28;20055;-75
2021/03/21 03:48:07;;;;;;;3.63;3.13;;;-0.30;97.40;;;;;;5073816;28;20103;-75
2021/03/21 03:50:59;;;;;;;3.88;3.28;;;-0.40;96.80;;;;;;5073434;28;20500;-75
2021/03/21 03:53:44;;;;;;;4.00;3.05;;;-0.30;97.50;;;;;;5073802;28;20531;-75
2021/03/21 03:56:14;;;;;;;4.70;3.20;;;-0.30;97.00;;;;;;5073307;28;20036;-75
2021/03/21 03:59:27;;;;;;;5.45;3.03;;;-0.40;97.50;;;;;;5073857;28;20025;-75
2021/03/21 04:02:07;;;;;;;3.58;3.20;;;-0.30;97.50;;;;;;5012101;28;20445;-75
2021/03/21 04:05:03;;;;;;;4.75;2.97;;;-0.40;96.30;;;;;;5011370;28;20037;-75
2021/03/21 04:07:32;;;;;;;3.80;2.90;;;-0.40;97.40;;;;;;5011718;28;20054;-75
2021/03/21 04:10:04;;;;;;;4.68;4.07;;;-0.50;97.20;;;;;;5011795;28;20133;-75
2021/03/21 04:12:41;;;;;;;4.25;3.50;;;-0.50;97.20;;;;;;5011635;28;20037;-75
2021/03/21 04:15:18;;;;;;;5.13;4.07;;;-0.50;97.10;;;;;;5011454;28;20022;-75
2021/03/21 04:18:19;;;;;;;4.30;3.25;;;-0.40;98.00;;;;;;5011819;28;20519;-75
2021/03/21 04:21:00;;;;;;;4.22;3.45;;;-0.40;96.80;;;;;;5008694;28;20064;-75
2021/03/21 04:23:46;;;;;;;4.82;3.63;;;-0.30;96.50;;;;;;5011437;28;20104;-75
2021/03/21 04:26:28;;;;;;;5.45;3.97;;;-0.50;97.30;;;;;;5011337;28;20070;-75
2021/03/21 04:29:01;;;;;;;6.55;3.53;;;-0.40;97.80;;;;;;4994763;28;20049;-75
2021/03/21 04:31:29;;;;;;;5.38;3.70;;;-0.30;96.60;;;;;;5014096;28;20065;-75
2021/03/21 04:34:00;;;;;;;4.85;3.75;;;-0.20;97.40;;;;;;5058911;28;20017;-74
2021/03/21 04:36:33;;;;;;;4.03;3.33;;;-0.20;96.30;;;;;;5072918;28;20033;-75
2021/03/21 04:39:05;;;;;;;4.28;3.40;;;-0.30;95.90;;;;;;5073112;28;20027;-75
2021/03/21 04:42:01;;;;;;;6.47;3.88;;;-0.60;97.00;;;;;;5073186;28;20107;-74
2021/03/21 04:44:51;;;;;;;5.38;3.55;;;-0.60;97.60;;;;;;5064656;28;20044;-75
2021/03/21 04:47:27;;;;;;;5.07;3.15;;;-0.60;97.10;;;;;;5073028;28;20411;-75
2021/03/21 04:49:57;;;;;;;3.50;2.97;;;-0.50;96.90;;;;;;5070678;28;20066;-75
2021/03/21 04:52:44;;;;;;;6.28;3.80;;;-0.40;95.90;;;;;;5071509;28;20389;-75
2021/03/21 04:55:22;;;;;;;4.13;3.03;;;-0.20;95.30;;;;;;5072996;28;20469;-75
2021/03/21 04:57:49;;;;;;;4.63;3.35;;;-0.10;95.40;;;;;;5072788;28;20029;-75
2021/03/21 05:00:27;;;;;;;6.28;3.72;;;-0.10;95.60;;;;;;5073054;28;20055;-75
2021/03/21 05:03:00;;;;;;;4.15;3.00;;;-0.10;96.10;;;;;;5072964;28;20021;-74
2021/03/21 05:05:42;;;;;;;4.50;3.53;;;-0.20;95.40;;;;;;5071631;28;20134;-75
2021/03/21 05:08:25;;;;;;;4.47;3.28;;;-0.20;95.70;;;;;;5073052;28;20082;-75
2021/03/21 05:10:56;;;;;;;4.03;2.97;;;-0.30;95.80;;;;;;5072651;28;20025;-75
2021/03/21 05:13:40;;;;;;;4.72;3.65;;;-0.30;96.00;;;;;;5071433;28;20024;-75
2021/03/21 05:16:22;;;;;;;5.22;3.80;;;-0.30;96.50;;;;;;5072931;28;20477;-75
2021/03/21 05:19:11;;;;;;;3.83;3.42;;;-0.20;95.60;;;;;;5072652;28;20028;-74
2021/03/21 05:21:43;;;;;;;3.92;3.45;;;-0.30;96.10;;;;;;5072665;28;20024;-75
2021/03/21 05:24:19;;;;;;;4.65;3.35;;;-0.30;96.20;;;;;;5072633;28;20593;-75
2021/03/21 05:27:05;;;;;;;9.00;3.67;;;-0.30;96.20;;;;;;5072716;28;20025;-75
2021/03/21 05:29:58;;;;;;;4.82;3.85;;;-0.30;96.40;;;;;;5072431;28;20084;-75
2021/03/21 05:32:24;;;;;;;3.97;3.53;;;-0.30;96.40;;;;;;5072068;28;20029;-75
2021/03/21 05:34:55;;;;;;;6.80;4.22;;;-0.40;97.10;;;;;;5072721;28;20021;-75
2021/03/21 05:37:35;;;;;;;5.88;4.13;;;-0.40;96.80;;;;;;5062965;28;20044;-75
2021/03/21 05:40:02;;;;;;;5.25;3.97;;;-0.30;95.70;;;;;;5052715;28;20025;-75
2021/03/21 05:42:45;;;;;;;6.60;3.63;;;-0.30;96.40;;;;;;5052297;28;20056;-75
2021/03/21 05:45:26;;;;;;;7.97;4.30;;;-0.30;96.60;;;;;;5054000;28;20113;-75
2021/03/21 05:48:26;;;;;;;5.20;3.35;;;-0.30;97.80;;;;;;5056155;28;20058;-75
2021/03/21 05:51:16;;;;;;;4.25;3.60;;;-0.20;96.10;;;;;;5056105;28;20029;-74
2021/03/21 05:54:15;;;;;;;5.43;4.13;;;-0.40;95.90;;;;;;5056205;28;20025;-75
2021/03/21 05:56:54;;;;;;;3.63;3.20;;;-0.40;96.50;;;;;;5059863;28;20028;-75
2021/03/21 05:59:48;;;;;;;4.35;3.20;;;-0.50;97.40;;;;;;5076081;28;20465;-75
2021/03/21 06:02:31;;;;;;;5.22;3.72;;;-0.40;96.70;;;;;;5075601;28;20025;-75
2021/03/21 06:05:15;;;;;;;5.13;4.00;;;-0.40;96.10;;;;;;5075997;28;20043;-75
2021/03/21 06:07:52;;;;;;;5.38;4.28;;;-0.30;97.30;;;;;;5075455;28;20039;-75
2021/03/21 06:10:39;;;;;;;4.78;3.63;;;-0.30;97.40;;;;;;5075743;28;20100;-75
2021/03/21 06:13:12;;;;;;;5.57;4.38;;;-0.30;97.10;;;;;;5075782;28;20124;-75
2021/03/21 06:15:56;;;;;;;5.70;4.03;;;-0.30;98.60;;;;;;5075213;28;20400;-75
2021/03/21 06:18:26;;;;;;;5.85;4.25;;;-0.10;96.80;;;;;;5074609;28;20032;-75
2021/03/21 06:21:13;;;;;;;6.78;3.65;;;-0.10;96.00;;;;;;5075388;28;20099;-75
2021/03/21 06:24:06;;;;;;;4.85;4.13;;;0.00;95.60;;;;;;5070128;28;20036;-75
2021/03/21 06:26:54;;;;;;;6.10;3.75;;;0.00;95.60;;;;;;5056882;28;20036;-75
2021/03/21 06:29:30;;;;;;;4.97;3.90;;;0.20;95.80;;;;;;5063961;28;20106;-75
2021/03/21 06:32:33;;;;;;;4.65;3.53;;;0.40;94.50;;;;;;5091467;28;20044;-75
2021/03/21 06:35:06;;;;;;;7.00;3.90;;;0.40;94.10;;;;;;5080230;28;20033;-75
2021/03/21 06:38:05;;;;;;;5.18;3.90;;;0.40;95.60;;;;;;5074895;28;20063;-75
2021/03/21 06:41:09;;;;;;;5.28;3.67;;;0.40;94.80;;;;;;5071946;28;20029;-75
2021/03/21 06:44:25;;;;;;;9.07;4.10;;;0.70;93.80;;;;;;5054981;28;20036;-75
2021/03/21 06:47:12;;;;;;;9.05;4.38;;;1.10;92.80;;;;;;5017597;28;20060;-75
2021/03/21 06:50:18;;;;;;;8.77;4.07;;;1.50;92.00;;;;;;5027886;28;20040;-75
2021/03/21 06:53:04;;;;;;;6.13;3.42;;;1.60;91.60;;;;;;5021327;28;20048;-75
2021/03/21 06:55:36;;;;;;;6.65;4.30;;;1.80;91.00;;;;;;5025078;28;20032;-75
2021/03/21 06:58:31;;;;;;;4.88;3.33;;;2.00;90.60;;;;;;5027417;28;20025;-75
2021/03/21 07:01:09;;;;;;;4.32;3.38;;;2.20;90.50;;;;;;5026757;28;20049;-75
2021/03/21 07:04:12;;;;;;;5.07;3.42;;;2.10;89.90;;;;;;5029391;28;20141;-75
2021/03/21 07:07:02;;;;;;;3.85;3.30;;;2.10;90.30;;;;;;5028938;28;20108;-75
2021/03/21 07:09:45;;;;;;;3.03;2.53;;;1.90;90.10;;;;;;5016690;28;20096;-75
2021/03/21 07:12:29;;;;;;;5.07;3.10;;;1.80;90.80;;;;;;5026498;28;20037;-75
2021/03/21 07:15:22;;;;;;;3.83;3.03;;;1.80;90.40;;;;;;5031851;28;20474;-75
2021/03/21 07:18:06;;;;;;;3.30;3.00;;;1.80;90.40;;;;;;5028041;28;20477;-75
2021/03/21 07:20:43;;;;;;;4.45;3.38;;;1.70;90.80;;;;;;5031540;28;20037;-75
2021/03/21 07:23:47;;;;;;;5.13;3.20;;;1.70;91.70;;;;;;5067346;28;20086;-74
2021/03/21 07:26:34;;;;;;;3.67;3.05;;;1.70;91.20;;;;;;5055478;28;20457;-75
2021/03/21 07:29:24;;;;;;;5.35;3.03;;;1.80;91.00;;;;;;5073561;28;20056;-75
2021/03/21 07:31:59;;;;;;;3.70;2.80;;;2.00;91.10;;;;;;5073879;28;20495;-75
2021/03/21 07:34:51;;;;;;;5.93;3.20;;;2.10;90.70;;;;;;5073020;28;20438;-75
2021/03/21 07:37:43;;;;;;;4.07;3.28;;;2.40;90.50;;;;;;5069539;28;20028;-75
2021/03/21 07:40:18;;;;;;;5.50;4.15;;;2.90;88.90;;;;;;5073152;28;20333;-75
2021/03/21 07:43:13;;;;;;;5.68;3.42;;;3.30;86.70;;;;;;5059847;28;20064;-75
2021/03/21 07:45:55;;;;;;;4.55;3.42;;;3.50;87.30;;;;;;5073646;28;20507;-76
2021/03/21 07:48:51;;;;;;;3.78;3.22;;;3.60;85.80;;;;;;5053853;28;20030;-75
2021/03/21 07:51:27;;;;;;;5.15;3.20;;;3.60;84.90;;;;;;5053900;28;20029;-75
2021/03/21 07:54:11;;;;;;;4.97;3.67;;;3.90;82.30;;;;;;5053745;28;20122;-75
2021/03/21 07:56:49;;;;;;;4.95;3.92;;;4.10;81.40;;;;;;5060229;28;20056;-75
2021/03/21 07:59:23;;;;;;;5.32;3.90;;;4.30;79.10;;;;;;5073107;28;20477;-75
2021/03/21 08:01:49;;;;;;;4.60;3.63;;;4.70;77.00;;;;;;5073539;28;20032;-75
2021/03/21 08:04:17;;;;;;;5.57;4.03;;;5.00;76.90;;;;;;5073614;28;20044;-75
2021/03/21 08:06:48;;;;;;;4.70;3.65;;;5.10;74.20;;;;;;5073112;28;20050;-75
2021/03/21 08:09:30;;;;;;;5.78;3.58;;;5.30;74.30;;;;;;5072743;28;20020;-75
2021/03/21 08:12:20;;;;;;;5.60;4.13;;;5.40;73.80;;;;;;5072702;28;20029;-75
2021/03/21 08:14:50;;;;;;;4.47;3.55;;;5.60;71.80;;;;;;5070527;28;20021;-75
2021/03/21 08:17:25;;;;;;;5.20;3.67;;;5.60;71.70;;;;;;5062290;28;20053;-75
2021/03/21 08:20:27;;;;;;;4.35;3.47;;;5.60;72.50;;;;;;5063055;28;20488;-75
2021/03/21 08:23:26;;;;;;;6.50;4.03;;;5.60;71.20;;;;;;5061498;28;20024;-75
2021/03/21 08:26:00;;;;;;;5.45;3.85;;;5.60;71.10;;;;;;5054455;28;20021;-75
2021/03/21 08:28:35;;;;;;;5.90;3.60;;;5.60;71.30;;;;;;5052364;28;20083;-75
2021/03/21 08:31:07;;;;;;;6.10;4.07;;;5.60;71.30;;;;;;5061178;28;20036;-75
2021/03/21 08:33:35;;;;;;;4.53;3.63;;;6.00;72.00;;;;;;5056896;28;20435;-75
2021/03/21 08:36:22;;;;;;;5.18;3.75;;;6.40;70.70;;;;;;5066917;28;20764;-76
2021/03/21 08:39:19;;;;;;;6.07;4.03;;;6.20;68.80;;;;;;5056651;28;20496;-75
2021/03/21 08:41:49;;;;;;;4.78;3.42;;;7.30;66.20;;;;;;5072023;28;20028;-76
2021/03/21 08:44:24;;;;;;;;;;;8.50;62.20;;;;;;5069731;28;20138;-76
2021/03/21 08:46:50;;;;;;;5.57;4.13;;;10.20;57.50;;;;;;5072564;28;20365;-77
2021/03/21 08:49:23;;;;;;;5.68;4.88;;;8.50;59.70;;;;;;5072030;28;20468;-78
2021/03/21 08:51:49;;;;;;;5.88;5.13;;;7.70;64.00;;;;;;5071665;28;20024;-78
2021/03/21 08:54:24;;;;;;;8.50;5.47;;;8.30;63.80;;;;;;5060168;28;20483;-79
2021/03/21 08:57:14;;;;;;;7.45;5.88;;;8.00;62.50;;;;;;5061575;28;20021;-78
2021/03/21 08:59:43;;;;;;;10.05;6.35;;;8.50;60.90;;;;;;5072289;28;20042;-79
2021/03/21 09:02:15;;;;;;;6.45;5.28;;;8.60;61.50;;;;;;5072136;28;20063;-78
2021/03/21 09:04:44;;;;;;;6.75;5.82;;;8.40;60.70;;;;;;5072827;28;20106;-79
2021/03/21 09:07:26;;;;;;;5.65;5.05;;;8.50;65.10;;;;;;5072654;28;20025;-78
2021/03/21 09:10:17;;;;;;;6.22;5.63;;;9.00;60.70;;;;;;5070969;28;20195;-78
2021/03/21 09:12:49;;;;;;;5.43;4.93;;;10.40;57.20;;;;;;5072588;28;20064;-77
2021/03/21 09:15:32;;;;;;;5.93;5.10;;;8.70;59.00;;;;;;5072247;28;20017;-77
2021/03/21 09:18:18;;;;;;;5.13;4.63;;;8.30;62.10;;;;;;5071843;28;20054;-78
2021/03/21 09:20:59;;;;;;;9.02;4.88;;;8.70;62.40;;;;;;5074679;28;20423;-78
2021/03/21 09:23:30;;;;;;;5.18;4.68;;;8.50;59.80;;;;;;5076163;28;20028;-78
2021/03/21 09:25:57;;;;;;;7.13;5.10;;;8.50;61.70;;;;;;5075642;28;20032;-78
2021/03/21 09:28:26;;;;;;;5.40;4.78;;;7.80;63.80;;;;;;5075632;28;20020;-78
2021/03/21 09:30:54;;;;;;;5.03;4.53;;;8.00;63.20;;;;;;5075614;28;20037;-78
2021/03/21 09:33:47;;;;;;;6.10;4.80;;;8.20;60.80;;;;;;5075777;28;20107;-78
2021/03/21 09:36:26;;;;;;;5.20;4.70;;;8.80;62.50;;;;;;5075626;28;20020;-77
2021/03/21 09:39:26;;;;;;;6.80;4.77;;;9.40;61.80;;;;;;5075589;28;20110;-78
2021/03/21 09:41:56;;;;;;;5.68;4.80;;;10.20;58.60;;;;;;5064195;28;20120;-78
2021/03/21 09:44:28;;;;;;;6.20;5.40;;;10.20;57.70;;;;;;5075628;28;20029;-78
2021/03/21 09:47:16;;;;;;;6.05;5.05;;;11.20;57.90;;;;;;5075706;28;20111;-78
2021/03/21 09:50:04;;;;;;;6.07;5.50;;;10.30;58.20;;;;;;5075452;28;20400;-77
2021/03/21 09:52:57;;;;;;;6.68;5.50;;;10.90;54.50;;;;;;5075501;28;20021;-78
2021/03/21 09:55:31;;;;;;;8.25;6.25;;;10.30;57.40;;;;;;5075142;28;20103;-78
2021/03/21 09:58:34;;;;;;;6.65;5.95;;;10.70;59.60;;;;;;5075481;28;20082;-78
2021/03/21 10:01:19;;;;;;;13.98;6.72;;;10.70;58.10;;;;;;5073833;28;20361;-78
2021/03/21 10:03:49;;;;;;;6.28;5.78;;;10.20;57.50;;;;;;5072753;28;20108;-78
2021/03/21 10:06:22;;;;;;;11.27;5.50;;;9.80;57.90;;;;;;5070795;28;20028;-78
2021/03/21 10:08:55;;;;;;;7.03;5.68;;;10.30;59.70;;;;;;5055867;28;20473;-78
2021/03/21 10:11:46;;;;;;;6.28;5.68;;;11.30;58.60;;;;;;5070113;28;20140;-77
2021/03/21 10:14:27;;;;;;;7.10;6.40;;;10.90;57.30;;;;;;5058363;28;20029;-78
2021/03/21 10:16:53;;;;;;;8.32;6.20;;;11.30;54.90;;;;;;5075137;28;20077;-78
2021/03/21 10:19:38;;;;;;;7.15;6.45;;;11.70;57.20;;;;;;5075555;28;20142;-78
2021/03/21 10:22:19;;;;;;;11.20;6.65;;;12.70;54.00;;;;;;5075103;28;20031;-78
2021/03/21 10:24:47;;;;;;;7.63;6.78;;;13.00;50.10;;;;;;5074843;28;20434;-78
2021/03/21 10:27:22;;;;;;;7.35;6.65;;;14.20;45.60;;;;;;5074414;28;20396;-79
2021/03/21 10:30:05;;;;;;;6.45;5.85;;;17.40;44.30;;;;;;5074693;28;20048;-79
2021/03/21 10:32:33;;;;;;;7.63;6.85;;;18.00;40.20;;;;;;5073778;28;20044;-79
2021/03/21 10:35:04;;;;;;;6.20;5.68;;;18.40;39.70;;;;;;5074797;28;20025;-79
2021/03/21 10:37:41;;;;;;;7.68;5.93;;;19.20;38.70;;;;;;5074410;28;20032;-79
2021/03/21 10:40:25;;;;;;;7.10;6.20;;;19.90;39.30;;;;;;5074619;28;20028;-79
2021/03/21 10:43:31;;;;;;;7.05;6.35;;;20.70;35.30;;;;;;5074434;28;20392;-79
2021/03/21 10:45:57;;;;;;;8.50;6.72;;;18.80;36.20;;;;;;5074341;28;20029;-80
2021/03/21 10:48:25;;;;;;;6.93;6.32;;;20.90;35.70;;;;;;5074360;28;20029;-80
2021/03/21 10:51:03;;;;;;;7.53;6.60;;;19.80;35.90;;;;;;5074425;28;20024;-79
2021/03/21 10:53:32;;;;;;;7.15;6.55;;;21.20;36.40;;;;;;5074311;28;20056;-79
2021/03/21 10:56:14;;;;;;;6.60;6.00;;;21.70;35.00;;;;;;5074216;28;20477;-80
2021/03/21 10:58:41;;;;;;;11.68;7.00;;;19.40;39.20;;;;;;5074202;28;20480;-79
2021/03/21 11:01:22;;;;;;;7.35;6.65;;;19.80;33.40;;;;;;5074131;28;20028;-79
2021/03/21 11:04:05;;;;;;;7.15;6.50;;;17.80;39.60;;;;;;5074205;28;20039;-80
2021/03/21 11:06:46;;;;;;;6.80;6.20;;;16.80;41.00;;;;;;5073720;28;20067;-79
2021/03/21 11:09:18;;;;;;;7.28;5.93;;;18.30;39.10;;;;;;5074031;28;20056;-79
2021/03/21 11:11:47;;;;;;;6.10;5.60;;;20.10;36.90;;;;;;5074085;28;20037;-79
2021/03/21 11:14:24;;;;;;;9.80;6.32;;;19.80;33.50;;;;;;5073945;28;20442;-82
2021/03/21 11:16:54;;;;;;;7.32;6.63;;;20.60;33.40;;;;;;5059542;28;20036;-80
2021/03/21 11:19:21;;;;;;;7.25;6.53;;;19.80;33.50;;;;;;5059665;28;20124;-80
2021/03/21 11:21:47;;;;;;;7.00;6.07;;;19.90;36.00;;;;;;5074046;28;20025;-79
2021/03/21 11:24:33;;;;;;;10.70;6.07;;;19.70;35.90;;;;;;5074127;28;20037;-80
2021/03/21 11:27:00;;;;;;;8.10;7.03;;;19.10;36.10;;;;;;5074230;28;20044;-80
2021/03/21 11:29:31;;;;;;;7.20;6.05;;;17.40;37.40;;;;;;5073975;28;20048;-79
2021/03/21 11:32:03;;;;;;;7.20;6.50;;;17.80;37.40;;;;;;5090229;28;20032;-78
2021/03/21 11:34:34;;;;;;;8.23;6.47;;;18.50;38.10;;;;;;5094096;28;20111;-79
2021/03/21 11:37:08;;;;;;;5.93;5.43;;;16.50;39.00;;;;;;5077740;28;20046;-80
2021/03/21 11:39:47;;;;;;;6.43;5.82;;;15.20;41.10;;;;;;5072767;28;20032;-80
2021/03/21 11:42:23;;;;;;;7.55;6.63;;;19.40;37.90;;;;;;5073559;28;20029;-80
2021/03/21 11:44:52;;;;;;;6.45;5.82;;;22.70;31.50;;;;;;5072912;28;20036;-81
2021/03/21 11:47:25;;;;;;;7.93;7.13;;;24.50;29.90;;;;;;5063461;28;20512;-81
2021/03/21 11:49:52;;;;;;;6.28;5.75;;;24.50;29.40;;;;;;5063288;28;20275;-81
2021/03/21 11:52:18;;;;;;;12.75;11.50;;;23.00;29.40;;;;;;5053470;28;20033;-81
2021/03/21 11:54:45;;;;;;;7.30;6.70;;;21.50;31.40;;;;;;5052162;28;20397;-81
2021/03/21 11:57:29;;;;;;;7.03;5.97;;;22.10;31.60;;;;;;5053778;28;20079;-81
2021/03/21 12:00:21;;;;;;;12.63;10.25;;;24.30;29.80;;;;;;5053509;28;20025;-81
2021/03/21 12:03:19;;;;;;;7.05;6.45;;;25.70;28.70;;;;;;5053113;28;20053;-81
2021/03/21 12:05:58;;;;;;;46.28;41.25;;;26.50;28.70;;;;;;5053018;28;20032;-81
2021/03/21 12:08:30;;;;;;;6.90;6.20;;;24.40;29.30;;;;;;5053515;28;20032;-82
2021/03/21 12:10:56;;;;;;;7.35;6.50;;;23.00;30.30;;;;;;5053613;28;20271;-81
2021/03/21 12:13:39;;;;;;;5.82;5.07;;;22.60;29.90;;;;;;5053567;28;20488;-81
2021/03/21 12:16:29;;;;;;;47.35;33.17;;;22.10;31.00;;;;;;5053170;28;20400;-79
2021/03/21 12:18:58;;;;;;;9.68;8.77;;;23.50;29.40;;;;;;5052920;28;20108;-82
2021/03/21 12:21:24;;;;;;;10.02;6.40;;;22.20;30.70;;;;;;5053088;28;20112;-80
2021/03/21 12:23:56;;;;;;;6.70;6.00;;;21.40;31.80;;;;;;5053242;28;20026;-84
2021/03/21 12:26:31;;;;;;;14.82;6.82;;;19.80;32.70;;;;;;5060415;28;20028;-83
2021/03/21 12:29:00;;;;;;;7.38;6.68;;;21.90;31.60;;;;;;5071635;28;20412;-83
2021/03/21 12:31:39;;;;;;;6.45;5.85;;;22.20;30.40;;;;;;5072536;28;20047;-82
2021/03/21 12:34:33;;;;;;;13.02;6.28;;;20.00;33.00;;;;;;5058077;28;20025;-82
2021/03/21 12:37:21;;;;;;;31.63;27.75;;;19.10;34.20;;;;;;5056664;28;20071;-77
2021/03/21 12:39:50;;;;;;;30.33;26.30;;;18.40;35.40;;;;;;5052781;28;20017;-77
2021/03/21 12:42:32;;;;;;;8.40;7.70;;;17.70;39.20;;;;;;5057314;28;20043;-78
2021/03/21 12:45:23;;;;;;;10.85;9.15;;;17.40;35.90;;;;;;5072428;28;20035;-77
2021/03/21 12:47:55;;;;;;;8.55;7.60;;;18.40;35.10;;;;;;5071897;28;20445;-77
2021/03/21 12:50:44;;;;;;;9.07;7.25;;;21.60;32.10;;;;;;5061202;28;20024;-78
2021/03/21 12:53:26;;;;;;;9.82;7.28;;;22.70;32.10;;;;;;5058589;28;20024;-77
2021/03/21 12:55:57;;;;;;;7.53;6.68;;;22.50;30.20;;;;;;5068142;28;20113;-78
2021/03/21 12:58:26;;;;;;;9.60;6.80;;;18.50;34.20;;;;;;5061239;28;20444;-78
2021/03/21 13:00:54;;;;;;;8.65;7.50;;;18.70;35.80;;;;;;5063031;28;20020;-77
2021/03/21 13:03:30;;;;;;;7.45;6.75;;;18.10;35.40;;;;;;5064363;28;20013;-77
2021/03/21 13:05:59;;;;;;;15.55;14.07;;;19.30;33.70;;;;;;5065676;28;20469;-78
2021/03/21 13:08:27;;;;;;;7.95;7.25;;;19.70;34.30;;;;;;5063525;28;20017;-77
2021/03/21 13:10:55;;;;;;;7.07;6.38;;;19.10;33.40;;;;;;5066476;28;20031;-77
2021/03/21 13:13:21;;;;;;;6.03;5.43;;;17.60;35.50;;;;;;5066786;28;20048;-77
2021/03/21 13:15:48;;;;;;;6.97;5.75;;;16.50;36.60;;;;;;5069172;28;20021;-78
2021/03/21 13:18:18;;;;;;;7.45;6.13;;;17.60;34.80;;;;;;5064097;28;20362;-77
2021/03/21 13:20:49;;;;;;;10.93;6.28;;;17.50;33.70;;;;;;5069648;28;20029;-77
2021/03/21 13:23:15;;;;;;;6.18;5.65;;;18.90;34.30;;;;;;5065531;28;20020;-77
2021/03/21 13:25:42;;;;;;;7.15;5.68;;;20.80;32.70;;;;;;5066891;28;20388;-77
2021/03/21 13:28:09;;;;;;;12.75;6.35;;;18.00;35.60;;;;;;5069639;28;20025;-77
2021/03/21 13:30:37;;;;;;;6.60;5.68;;;16.00;36.50;;;;;;5059441;28;20358;-77
2021/03/21 13:33:05;;;;;;;7.72;6.10;;;15.30;40.80;;;;;;5063566;28;20024;-77
2021/03/21 13:35:31;;;;;;;7.63;6.82;;;16.50;39.00;;;;;;5059311;28;20033;-78
2021/03/21 13:37:59;;;;;;;9.77;6.57;;;17.30;37.90;;;;;;5055897;28;20026;-78
2021/03/21 13:40:32;;;;;;;6.03;5.45;;;18.90;35.90;;;;;;5054651;28;20044;-78
2021/03/21 13:43:00;;;;;;;7.00;6.32;;;19.60;33.80;;;;;;5069488;28;20089;-78